Wellington, Florida
Current Conditions -  °F | °C
As of 8:53 AM on Monday 26 Jan 2015 (Local Time) from KPBI Reporting Station
Broken Clouds Broken Clouds  
Wind Chill: 63°   Ceiling: 3700
Heat Index: 63°   Visibility: 10mi
Dew Point: 56°   Wind: 12mph
Humidity: 78%   Direction: 220°SW
Pressure: 29.91"   Gusts: NA
Location:  26.64°N, 80.27°W
Report Text: KPBI 261353Z 22010KT 10SM BKN037 BKN048 BKN080 17/13 A2991 RMK AO2 SLP127 T01720133
Loading
Personal Weather Stations






























Interactive Weather Map New forecast layout! Learn more

10-Day Weather Forecast

Advertisements
Track Severe Weather on mobile